sensor_id;sensor_type;location;lat;lon;timestamp;P1;durP1;ratioP1;P2;durP2;ratioP2
6983;SDS011;3532;51.118;7.210;2022-11-23T00:01:30;5.57;;;2.47;;
6983;SDS011;3532;51.118;7.210;2022-11-23T00:03:57;7.23;;;2.40;;
6983;SDS011;3532;51.118;7.210;2022-11-23T00:06:25;5.63;;;2.30;;
6983;SDS011;3532;51.118;7.210;2022-11-23T00:08:51;7.87;;;3.63;;
6983;SDS011;3532;51.118;7.210;2022-11-23T00:11:17;5.63;;;2.80;;
6983;SDS011;3532;51.118;7.210;2022-11-23T00:13:43;7.67;;;2.80;;
6983;SDS011;3532;51.118;7.210;2022-11-23T00:16:13;3.53;;;2.20;;
6983;SDS011;3532;51.118;7.210;2022-11-23T00:18:40;5.10;;;2.70;;
6983;SDS011;3532;51.118;7.210;2022-11-23T00:21:07;4.03;;;2.57;;
6983;SDS011;3532;51.118;7.210;2022-11-23T00:23:33;5.77;;;2.50;;
6983;SDS011;3532;51.118;7.210;2022-11-23T00:25:59;6.17;;;2.17;;
6983;SDS011;3532;51.118;7.210;2022-11-23T00:28:24;4.87;;;2.43;;
6983;SDS011;3532;51.118;7.210;2022-11-23T00:30:50;4.33;;;2.27;;
6983;SDS011;3532;51.118;7.210;2022-11-23T00:33:15;4.50;;;2.40;;
6983;SDS011;3532;51.118;7.210;2022-11-23T00:35:41;6.07;;;2.40;;
6983;SDS011;3532;51.118;7.210;2022-11-23T00:38:06;3.70;;;2.37;;
6983;SDS011;3532;51.118;7.210;2022-11-23T00:40:32;9.77;;;2.40;;
6983;SDS011;3532;51.118;7.210;2022-11-23T00:42:57;4.43;;;2.40;;
6983;SDS011;3532;51.118;7.210;2022-11-23T00:45:22;9.30;;;2.33;;
6983;SDS011;3532;51.118;7.210;2022-11-23T00:47:48;8.23;;;2.27;;
6983;SDS011;3532;51.118;7.210;2022-11-23T00:50:13;5.43;;;2.30;;
6983;SDS011;3532;51.118;7.210;2022-11-23T00:52:38;4.50;;;2.00;;
6983;SDS011;3532;51.118;7.210;2022-11-23T00:55:04;4.93;;;2.10;;
6983;SDS011;3532;51.118;7.210;2022-11-23T00:57:29;3.97;;;2.40;;
6983;SDS011;3532;51.118;7.210;2022-11-23T00:59:54;4.53;;;2.30;;
6983;SDS011;3532;51.118;7.210;2022-11-23T01:02:20;5.40;;;2.57;;
6983;SDS011;3532;51.118;7.210;2022-11-23T01:04:45;4.00;;;2.10;;
6983;SDS011;3532;51.118;7.210;2022-11-23T01:07:10;5.37;;;1.90;;
6983;SDS011;3532;51.118;7.210;2022-11-23T01:09:36;5.27;;;2.43;;
6983;SDS011;3532;51.118;7.210;2022-11-23T01:12:01;5.83;;;2.37;;
6983;SDS011;3532;51.118;7.210;2022-11-23T01:14:26;5.20;;;2.83;;
6983;SDS011;3532;51.118;7.210;2022-11-23T01:16:51;2.90;;;2.10;;
6983;SDS011;3532;51.118;7.210;2022-11-23T01:19:17;7.97;;;2.83;;
6983;SDS011;3532;51.118;7.210;2022-11-23T01:21:44;2.27;;;2.00;;
6983;SDS011;3532;51.118;7.210;2022-11-23T01:24:16;4.97;;;2.10;;
6983;SDS011;3532;51.118;7.210;2022-11-23T01:26:44;4.87;;;2.40;;
6983;SDS011;3532;51.118;7.210;2022-11-23T01:29:10;7.90;;;2.63;;
6983;SDS011;3532;51.118;7.210;2022-11-23T01:31:36;3.20;;;2.33;;
6983;SDS011;3532;51.118;7.210;2022-11-23T01:34:02;4.50;;;2.57;;
6983;SDS011;3532;51.118;7.210;2022-11-23T01:36:29;5.50;;;3.00;;
6983;SDS011;3532;51.118;7.210;2022-11-23T01:38:56;5.93;;;2.10;;
6983;SDS011;3532;51.118;7.210;2022-11-23T01:41:23;4.17;;;2.33;;
6983;SDS011;3532;51.118;7.210;2022-11-23T01:43:53;5.00;;;2.53;;
6983;SDS011;3532;51.118;7.210;2022-11-23T01:46:19;7.83;;;2.30;;
6983;SDS011;3532;51.118;7.210;2022-11-23T01:48:49;5.67;;;2.80;;
6983;SDS011;3532;51.118;7.210;2022-11-23T01:51:20;6.17;;;2.40;;
6983;SDS011;3532;51.118;7.210;2022-11-23T01:53:47;2.83;;;2.00;;
6983;SDS011;3532;51.118;7.210;2022-11-23T01:56:16;8.33;;;2.20;;
6983;SDS011;3532;51.118;7.210;2022-11-23T01:58:45;6.13;;;2.33;;
6983;SDS011;3532;51.118;7.210;2022-11-23T02:01:17;2.07;;;1.70;;
6983;SDS011;3532;51.118;7.210;2022-11-23T02:03:42;4.40;;;2.40;;
6983;SDS011;3532;51.118;7.210;2022-11-23T02:06:10;7.00;;;2.53;;
6983;SDS011;3532;51.118;7.210;2022-11-23T02:08:40;6.37;;;2.27;;
6983;SDS011;3532;51.118;7.210;2022-11-23T02:11:06;5.57;;;2.30;;
6983;SDS011;3532;51.118;7.210;2022-11-23T02:13:32;4.20;;;2.57;;
6983;SDS011;3532;51.118;7.210;2022-11-23T02:15:57;5.33;;;2.20;;
6983;SDS011;3532;51.118;7.210;2022-11-23T02:18:24;5.37;;;1.83;;
6983;SDS011;3532;51.118;7.210;2022-11-23T02:20:51;5.67;;;2.43;;
6983;SDS011;3532;51.118;7.210;2022-11-23T02:28:35;6.07;;;2.17;;
6983;SDS011;3532;51.118;7.210;2022-11-23T02:31:03;4.27;;;2.30;;
6983;SDS011;3532;51.118;7.210;2022-11-23T02:33:29;5.00;;;2.40;;
6983;SDS011;3532;51.118;7.210;2022-11-23T02:35:55;3.23;;;2.30;;
6983;SDS011;3532;51.118;7.210;2022-11-23T02:38:23;6.07;;;2.13;;
6983;SDS011;3532;51.118;7.210;2022-11-23T02:40:54;4.30;;;2.17;;
6983;SDS011;3532;51.118;7.210;2022-11-23T02:43:20;6.57;;;2.17;;
6983;SDS011;3532;51.118;7.210;2022-11-23T02:45:49;5.87;;;2.10;;
6983;SDS011;3532;51.118;7.210;2022-11-23T02:48:17;5.33;;;2.23;;
6983;SDS011;3532;51.118;7.210;2022-11-23T02:50:42;3.90;;;2.20;;
6983;SDS011;3532;51.118;7.210;2022-11-23T02:53:08;7.40;;;2.80;;
6983;SDS011;3532;51.118;7.210;2022-11-23T02:55:33;6.57;;;2.67;;
6983;SDS011;3532;51.118;7.210;2022-11-23T02:57:59;6.50;;;2.20;;
6983;SDS011;3532;51.118;7.210;2022-11-23T03:00:24;3.87;;;2.27;;
6983;SDS011;3532;51.118;7.210;2022-11-23T03:02:49;4.17;;;1.97;;
6983;SDS011;3532;51.118;7.210;2022-11-23T03:05:14;5.37;;;2.97;;
6983;SDS011;3532;51.118;7.210;2022-11-23T03:07:40;5.70;;;2.30;;
6983;SDS011;3532;51.118;7.210;2022-11-23T03:10:05;4.37;;;2.30;;
6983;SDS011;3532;51.118;7.210;2022-11-23T03:12:31;3.87;;;2.13;;
6983;SDS011;3532;51.118;7.210;2022-11-23T03:14:56;6.10;;;2.20;;
6983;SDS011;3532;51.118;7.210;2022-11-23T03:17:22;2.93;;;2.20;;
6983;SDS011;3532;51.118;7.210;2022-11-23T03:19:47;4.90;;;2.37;;
6983;SDS011;3532;51.118;7.210;2022-11-23T03:22:12;5.70;;;2.37;;
6983;SDS011;3532;51.118;7.210;2022-11-23T03:24:38;5.63;;;2.10;;
6983;SDS011;3532;51.118;7.210;2022-11-23T03:27:03;5.93;;;2.50;;
6983;SDS011;3532;51.118;7.210;2022-11-23T03:29:28;5.40;;;2.47;;
6983;SDS011;3532;51.118;7.210;2022-11-23T03:31:54;5.07;;;2.73;;
6983;SDS011;3532;51.118;7.210;2022-11-23T03:34:20;5.37;;;2.93;;
6983;SDS011;3532;51.118;7.210;2022-11-23T03:36:45;5.57;;;2.07;;
6983;SDS011;3532;51.118;7.210;2022-11-23T03:39:11;3.70;;;2.20;;
6983;SDS011;3532;51.118;7.210;2022-11-23T03:41:36;5.90;;;2.33;;
6983;SDS011;3532;51.118;7.210;2022-11-23T03:44:01;6.73;;;3.00;;
6983;SDS011;3532;51.118;7.210;2022-11-23T03:46:27;4.77;;;2.50;;
6983;SDS011;3532;51.118;7.210;2022-11-23T03:48:52;6.77;;;2.63;;
6983;SDS011;3532;51.118;7.210;2022-11-23T03:51:18;7.23;;;2.90;;
6983;SDS011;3532;51.118;7.210;2022-11-23T03:53:43;4.63;;;2.60;;
6983;SDS011;3532;51.118;7.210;2022-11-23T03:56:08;6.43;;;2.70;;
6983;SDS011;3532;51.118;7.210;2022-11-23T03:58:34;8.00;;;3.33;;
6983;SDS011;3532;51.118;7.210;2022-11-23T04:00:59;3.47;;;2.10;;
6983;SDS011;3532;51.118;7.210;2022-11-23T04:03:24;3.60;;;2.53;;
6983;SDS011;3532;51.118;7.210;2022-11-23T04:05:50;6.73;;;2.30;;
6983;SDS011;3532;51.118;7.210;2022-11-23T04:08:15;5.90;;;2.43;;
6983;SDS011;3532;51.118;7.210;2022-11-23T04:10:40;4.97;;;2.30;;
6983;SDS011;3532;51.118;7.210;2022-11-23T04:13:06;5.67;;;2.27;;
6983;SDS011;3532;51.118;7.210;2022-11-23T04:15:31;4.47;;;2.33;;
6983;SDS011;3532;51.118;7.210;2022-11-23T04:17:56;4.20;;;2.40;;
6983;SDS011;3532;51.118;7.210;2022-11-23T04:20:22;6.73;;;2.57;;
6983;SDS011;3532;51.118;7.210;2022-11-23T04:22:47;5.93;;;2.77;;
6983;SDS011;3532;51.118;7.210;2022-11-23T04:25:12;7.87;;;2.70;;
6983;SDS011;3532;51.118;7.210;2022-11-23T04:27:37;3.20;;;2.50;;
6983;SDS011;3532;51.118;7.210;2022-11-23T04:30:03;6.83;;;2.53;;
6983;SDS011;3532;51.118;7.210;2022-11-23T04:32:29;5.47;;;2.43;;
6983;SDS011;3532;51.118;7.210;2022-11-23T04:34:54;4.63;;;2.63;;
6983;SDS011;3532;51.118;7.210;2022-11-23T04:37:19;7.20;;;2.43;;
6983;SDS011;3532;51.118;7.210;2022-11-23T04:39:45;5.47;;;2.20;;
6983;SDS011;3532;51.118;7.210;2022-11-23T04:42:10;7.00;;;2.23;;
6983;SDS011;3532;51.118;7.210;2022-11-23T04:44:36;5.83;;;2.23;;
6983;SDS011;3532;51.118;7.210;2022-11-23T04:47:01;8.50;;;2.73;;
6983;SDS011;3532;51.118;7.210;2022-11-23T04:49:26;4.90;;;2.27;;
6983;SDS011;3532;51.118;7.210;2022-11-23T04:51:52;5.23;;;2.87;;
6983;SDS011;3532;51.118;7.210;2022-11-23T04:54:17;7.33;;;2.50;;
6983;SDS011;3532;51.118;7.210;2022-11-23T04:56:42;7.37;;;2.80;;
6983;SDS011;3532;51.118;7.210;2022-11-23T04:59:08;7.37;;;2.40;;
6983;SDS011;3532;51.118;7.210;2022-11-23T05:01:33;7.60;;;2.27;;
6983;SDS011;3532;51.118;7.210;2022-11-23T05:03:58;5.53;;;2.40;;
6983;SDS011;3532;51.118;7.210;2022-11-23T05:06:24;5.20;;;2.67;;
6983;SDS011;3532;51.118;7.210;2022-11-23T05:08:49;8.73;;;2.70;;
6983;SDS011;3532;51.118;7.210;2022-11-23T05:11:14;4.60;;;2.40;;
6983;SDS011;3532;51.118;7.210;2022-11-23T05:13:40;4.63;;;2.30;;
6983;SDS011;3532;51.118;7.210;2022-11-23T05:16:06;3.90;;;2.23;;
6983;SDS011;3532;51.118;7.210;2022-11-23T05:18:32;5.60;;;2.30;;
6983;SDS011;3532;51.118;7.210;2022-11-23T05:20:57;6.43;;;2.53;;
6983;SDS011;3532;51.118;7.210;2022-11-23T05:23:22;4.43;;;2.70;;
6983;SDS011;3532;51.118;7.210;2022-11-23T05:25:48;6.40;;;2.60;;
6983;SDS011;3532;51.118;7.210;2022-11-23T05:28:14;6.83;;;2.40;;
6983;SDS011;3532;51.118;7.210;2022-11-23T05:30:43;3.80;;;2.20;;
6983;SDS011;3532;51.118;7.210;2022-11-23T05:33:09;3.77;;;1.97;;
6983;SDS011;3532;51.118;7.210;2022-11-23T05:35:34;11.57;;;2.50;;
6983;SDS011;3532;51.118;7.210;2022-11-23T05:37:59;4.60;;;2.27;;
6983;SDS011;3532;51.118;7.210;2022-11-23T05:40:25;7.20;;;2.57;;
6983;SDS011;3532;51.118;7.210;2022-11-23T05:42:54;4.50;;;2.33;;
6983;SDS011;3532;51.118;7.210;2022-11-23T05:45:20;5.33;;;2.40;;
6983;SDS011;3532;51.118;7.210;2022-11-23T05:47:50;5.23;;;2.20;;
6983;SDS011;3532;51.118;7.210;2022-11-23T05:50:19;4.27;;;2.77;;
6983;SDS011;3532;51.118;7.210;2022-11-23T05:52:45;9.70;;;2.37;;
6983;SDS011;3532;51.118;7.210;2022-11-23T05:55:11;6.77;;;2.20;;
6983;SDS011;3532;51.118;7.210;2022-11-23T05:57:36;5.60;;;2.30;;
6983;SDS011;3532;51.118;7.210;2022-11-23T06:00:03;9.07;;;2.50;;
6983;SDS011;3532;51.118;7.210;2022-11-23T06:02:29;5.80;;;2.20;;
6983;SDS011;3532;51.118;7.210;2022-11-23T06:04:54;4.37;;;2.33;;
6983;SDS011;3532;51.118;7.210;2022-11-23T06:07:20;8.47;;;2.47;;
6983;SDS011;3532;51.118;7.210;2022-11-23T06:09:45;4.87;;;2.57;;
6983;SDS011;3532;51.118;7.210;2022-11-23T06:12:10;3.83;;;2.20;;
6983;SDS011;3532;51.118;7.210;2022-11-23T06:14:36;5.03;;;2.23;;
6983;SDS011;3532;51.118;7.210;2022-11-23T06:17:01;4.30;;;2.70;;
6983;SDS011;3532;51.118;7.210;2022-11-23T06:19:26;6.30;;;2.20;;
6983;SDS011;3532;51.118;7.210;2022-11-23T06:21:54;5.47;;;2.17;;
6983;SDS011;3532;51.118;7.210;2022-11-23T06:24:19;3.90;;;2.10;;
6983;SDS011;3532;51.118;7.210;2022-11-23T06:26:45;6.87;;;2.60;;
6983;SDS011;3532;51.118;7.210;2022-11-23T06:29:10;6.03;;;2.23;;
6983;SDS011;3532;51.118;7.210;2022-11-23T06:31:35;7.17;;;2.73;;
6983;SDS011;3532;51.118;7.210;2022-11-23T06:34:00;5.70;;;2.60;;
6983;SDS011;3532;51.118;7.210;2022-11-23T06:36:26;5.80;;;2.73;;
6983;SDS011;3532;51.118;7.210;2022-11-23T06:38:51;6.00;;;2.77;;
6983;SDS011;3532;51.118;7.210;2022-11-23T06:41:17;3.83;;;2.27;;
6983;SDS011;3532;51.118;7.210;2022-11-23T06:43:42;4.97;;;2.70;;
6983;SDS011;3532;51.118;7.210;2022-11-23T06:46:10;5.10;;;2.00;;
6983;SDS011;3532;51.118;7.210;2022-11-23T06:48:36;3.07;;;2.63;;
6983;SDS011;3532;51.118;7.210;2022-11-23T06:51:01;4.53;;;2.40;;
6983;SDS011;3532;51.118;7.210;2022-11-23T06:53:27;4.63;;;2.10;;
6983;SDS011;3532;51.118;7.210;2022-11-23T06:55:53;6.40;;;2.43;;
6983;SDS011;3532;51.118;7.210;2022-11-23T06:58:22;6.57;;;2.63;;
6983;SDS011;3532;51.118;7.210;2022-11-23T07:00:47;4.47;;;2.20;;
6983;SDS011;3532;51.118;7.210;2022-11-23T07:03:17;5.40;;;2.63;;
6983;SDS011;3532;51.118;7.210;2022-11-23T07:05:46;6.20;;;2.47;;
6983;SDS011;3532;51.118;7.210;2022-11-23T07:08:11;8.30;;;2.53;;
6983;SDS011;3532;51.118;7.210;2022-11-23T07:10:37;4.83;;;2.50;;
6983;SDS011;3532;51.118;7.210;2022-11-23T07:13:05;6.30;;;2.63;;
6983;SDS011;3532;51.118;7.210;2022-11-23T07:15:32;6.57;;;3.20;;
6983;SDS011;3532;51.118;7.210;2022-11-23T07:17:57;5.43;;;2.87;;
6983;SDS011;3532;51.118;7.210;2022-11-23T07:20:23;8.43;;;3.00;;
6983;SDS011;3532;51.118;7.210;2022-11-23T07:22:57;6.23;;;2.27;;
6983;SDS011;3532;51.118;7.210;2022-11-23T07:25:26;9.23;;;2.93;;
6983;SDS011;3532;51.118;7.210;2022-11-23T07:27:58;6.77;;;2.93;;
6983;SDS011;3532;51.118;7.210;2022-11-23T07:30:25;6.10;;;2.67;;
6983;SDS011;3532;51.118;7.210;2022-11-23T07:32:51;6.13;;;2.87;;
6983;SDS011;3532;51.118;7.210;2022-11-23T07:35:17;7.53;;;2.70;;
6983;SDS011;3532;51.118;7.210;2022-11-23T07:37:43;4.07;;;2.70;;
6983;SDS011;3532;51.118;7.210;2022-11-23T07:40:08;8.10;;;2.70;;
6983;SDS011;3532;51.118;7.210;2022-11-23T07:42:34;6.00;;;2.70;;
6983;SDS011;3532;51.118;7.210;2022-11-23T07:44:59;6.40;;;3.03;;
6983;SDS011;3532;51.118;7.210;2022-11-23T07:47:25;4.97;;;2.50;;
6983;SDS011;3532;51.118;7.210;2022-11-23T07:49:50;5.70;;;2.27;;
6983;SDS011;3532;51.118;7.210;2022-11-23T07:52:15;5.93;;;2.73;;
6983;SDS011;3532;51.118;7.210;2022-11-23T07:54:41;8.13;;;2.90;;
6983;SDS011;3532;51.118;7.210;2022-11-23T07:57:06;6.77;;;3.07;;
6983;SDS011;3532;51.118;7.210;2022-11-23T07:59:31;7.53;;;2.53;;
6983;SDS011;3532;51.118;7.210;2022-11-23T08:01:57;7.77;;;3.23;;
6983;SDS011;3532;51.118;7.210;2022-11-23T08:04:22;4.10;;;2.53;;
6983;SDS011;3532;51.118;7.210;2022-11-23T08:06:47;9.10;;;2.90;;
6983;SDS011;3532;51.118;7.210;2022-11-23T08:09:13;8.83;;;3.17;;
6983;SDS011;3532;51.118;7.210;2022-11-23T08:11:38;7.43;;;2.67;;
6983;SDS011;3532;51.118;7.210;2022-11-23T08:14:03;7.50;;;4.13;;
6983;SDS011;3532;51.118;7.210;2022-11-23T08:16:28;7.03;;;3.27;;
6983;SDS011;3532;51.118;7.210;2022-11-23T08:18:55;5.03;;;2.77;;
6983;SDS011;3532;51.118;7.210;2022-11-23T08:21:20;7.00;;;3.17;;
6983;SDS011;3532;51.118;7.210;2022-11-23T08:23:46;9.27;;;3.13;;
6983;SDS011;3532;51.118;7.210;2022-11-23T08:26:11;10.13;;;2.63;;
6983;SDS011;3532;51.118;7.210;2022-11-23T08:28:36;6.27;;;2.87;;
6983;SDS011;3532;51.118;7.210;2022-11-23T08:31:09;6.47;;;3.60;;
6983;SDS011;3532;51.118;7.210;2022-11-23T08:33:38;7.67;;;2.83;;
6983;SDS011;3532;51.118;7.210;2022-11-23T08:36:05;9.03;;;3.77;;
6983;SDS011;3532;51.118;7.210;2022-11-23T08:38:31;4.60;;;2.77;;
6983;SDS011;3532;51.118;7.210;2022-11-23T08:40:57;9.07;;;3.57;;
6983;SDS011;3532;51.118;7.210;2022-11-23T08:43:26;4.87;;;2.60;;
6983;SDS011;3532;51.118;7.210;2022-11-23T08:45:55;3.53;;;2.53;;
6983;SDS011;3532;51.118;7.210;2022-11-23T08:48:21;5.80;;;2.90;;
6983;SDS011;3532;51.118;7.210;2022-11-23T08:50:47;8.67;;;2.93;;
6983;SDS011;3532;51.118;7.210;2022-11-23T08:53:12;7.13;;;2.87;;
6983;SDS011;3532;51.118;7.210;2022-11-23T08:55:37;7.57;;;3.33;;
6983;SDS011;3532;51.118;7.210;2022-11-23T08:58:02;9.13;;;3.27;;
6983;SDS011;3532;51.118;7.210;2022-11-23T09:00:28;6.90;;;3.10;;
6983;SDS011;3532;51.118;7.210;2022-11-23T09:02:53;7.53;;;2.93;;
6983;SDS011;3532;51.118;7.210;2022-11-23T09:05:19;6.73;;;2.93;;
6983;SDS011;3532;51.118;7.210;2022-11-23T09:07:44;11.03;;;3.33;;
6983;SDS011;3532;51.118;7.210;2022-11-23T09:10:09;8.50;;;3.13;;
6983;SDS011;3532;51.118;7.210;2022-11-23T09:12:35;5.93;;;3.03;;
6983;SDS011;3532;51.118;7.210;2022-11-23T09:15:00;7.63;;;3.53;;
6983;SDS011;3532;51.118;7.210;2022-11-23T09:17:25;6.93;;;3.57;;
6983;SDS011;3532;51.118;7.210;2022-11-23T09:19:51;14.70;;;4.30;;
6983;SDS011;3532;51.118;7.210;2022-11-23T09:22:16;18.80;;;4.03;;
6983;SDS011;3532;51.118;7.210;2022-11-23T09:24:41;7.30;;;3.13;;
6983;SDS011;3532;51.118;7.210;2022-11-23T09:27:07;11.33;;;3.17;;
6983;SDS011;3532;51.118;7.210;2022-11-23T09:29:32;9.20;;;3.30;;
6983;SDS011;3532;51.118;7.210;2022-11-23T09:31:57;8.83;;;3.10;;
6983;SDS011;3532;51.118;7.210;2022-11-23T09:34:23;7.70;;;3.20;;
6983;SDS011;3532;51.118;7.210;2022-11-23T09:36:48;6.60;;;2.90;;
6983;SDS011;3532;51.118;7.210;2022-11-23T09:39:13;11.10;;;4.10;;
6983;SDS011;3532;51.118;7.210;2022-11-23T09:49:46;5.93;;;3.33;;
6983;SDS011;3532;51.118;7.210;2022-11-23T09:52:20;9.77;;;3.80;;
6983;SDS011;3532;51.118;7.210;2022-11-23T09:54:47;7.37;;;3.20;;
6983;SDS011;3532;51.118;7.210;2022-11-23T09:57:15;7.77;;;3.07;;
6983;SDS011;3532;51.118;7.210;2022-11-23T09:59:46;11.43;;;3.30;;
6983;SDS011;3532;51.118;7.210;2022-11-23T10:02:25;10.17;;;3.33;;
6983;SDS011;3532;51.118;7.210;2022-11-23T10:04:52;7.87;;;3.70;;
6983;SDS011;3532;51.118;7.210;2022-11-23T10:13:41;11.60;;;4.00;;
6983;SDS011;3532;51.118;7.210;2022-11-23T10:21:09;5.97;;;3.07;;
6983;SDS011;3532;51.118;7.210;2022-11-23T10:23:51;10.10;;;3.00;;
6983;SDS011;3532;51.118;7.210;2022-11-23T10:26:19;16.13;;;4.30;;
6983;SDS011;3532;51.118;7.210;2022-11-23T10:28:47;5.43;;;3.30;;
6983;SDS011;3532;51.118;7.210;2022-11-23T10:31:14;7.83;;;3.10;;
6983;SDS011;3532;51.118;7.210;2022-11-23T10:33:50;8.57;;;3.03;;
6983;SDS011;3532;51.118;7.210;2022-11-23T10:36:19;9.90;;;3.67;;
6983;SDS011;3532;51.118;7.210;2022-11-23T10:38:46;3.93;;;2.80;;
6983;SDS011;3532;51.118;7.210;2022-11-23T10:41:14;5.73;;;3.17;;
6983;SDS011;3532;51.118;7.210;2022-11-23T10:43:42;11.13;;;3.27;;
6983;SDS011;3532;51.118;7.210;2022-11-23T10:51:56;9.63;;;3.57;;
6983;SDS011;3532;51.118;7.210;2022-11-23T10:54:30;11.57;;;3.50;;
6983;SDS011;3532;51.118;7.210;2022-11-23T10:56:57;8.80;;;3.17;;
6983;SDS011;3532;51.118;7.210;2022-11-23T10:59:25;9.57;;;3.20;;
6983;SDS011;3532;51.118;7.210;2022-11-23T11:02:14;10.33;;;3.30;;
6983;SDS011;3532;51.118;7.210;2022-11-23T11:04:46;7.93;;;3.40;;
6983;SDS011;3532;51.118;7.210;2022-11-23T11:07:28;8.87;;;3.20;;
6983;SDS011;3532;51.118;7.210;2022-11-23T11:09:58;8.10;;;3.57;;
6983;SDS011;3532;51.118;7.210;2022-11-23T11:12:25;7.90;;;3.03;;
6983;SDS011;3532;51.118;7.210;2022-11-23T11:17:35;6.87;;;3.23;;
6983;SDS011;3532;51.118;7.210;2022-11-23T11:20:22;13.00;;;4.10;;
6983;SDS011;3532;51.118;7.210;2022-11-23T11:22:47;8.07;;;3.43;;
6983;SDS011;3532;51.118;7.210;2022-11-23T11:25:25;9.80;;;4.00;;
6983;SDS011;3532;51.118;7.210;2022-11-23T11:27:53;7.97;;;3.00;;
6983;SDS011;3532;51.118;7.210;2022-11-23T11:30:22;10.00;;;4.13;;
6983;SDS011;3532;51.118;7.210;2022-11-23T11:32:57;8.60;;;3.40;;
6983;SDS011;3532;51.118;7.210;2022-11-23T11:35:30;14.60;;;3.80;;
6983;SDS011;3532;51.118;7.210;2022-11-23T11:37:59;8.50;;;3.93;;
6983;SDS011;3532;51.118;7.210;2022-11-23T11:46:19;12.80;;;3.73;;
6983;SDS011;3532;51.118;7.210;2022-11-23T11:48:47;9.57;;;4.00;;
6983;SDS011;3532;51.118;7.210;2022-11-23T11:56:48;8.17;;;3.73;;
6983;SDS011;3532;51.118;7.210;2022-11-23T11:59:19;12.43;;;4.07;;
6983;SDS011;3532;51.118;7.210;2022-11-23T12:01:55;8.90;;;4.10;;
6983;SDS011;3532;51.118;7.210;2022-11-23T12:04:34;8.13;;;3.47;;
6983;SDS011;3532;51.118;7.210;2022-11-23T12:07:04;8.50;;;4.37;;
6983;SDS011;3532;51.118;7.210;2022-11-23T12:09:34;9.07;;;3.50;;
6983;SDS011;3532;51.118;7.210;2022-11-23T12:12:02;10.57;;;4.33;;
6983;SDS011;3532;51.118;7.210;2022-11-23T12:14:28;8.70;;;3.97;;
6983;SDS011;3532;51.118;7.210;2022-11-23T12:17:16;6.57;;;3.03;;
6983;SDS011;3532;51.118;7.210;2022-11-23T12:20:22;7.70;;;2.77;;
6983;SDS011;3532;51.118;7.210;2022-11-23T12:25:35;6.03;;;3.87;;
6983;SDS011;3532;51.118;7.210;2022-11-23T12:31:04;6.40;;;2.97;;
6983;SDS011;3532;51.118;7.210;2022-11-23T12:39:46;5.90;;;3.07;;
6983;SDS011;3532;51.118;7.210;2022-11-23T12:42:23;4.93;;;2.87;;
6983;SDS011;3532;51.118;7.210;2022-11-23T12:45:03;6.97;;;3.30;;
6983;SDS011;3532;51.118;7.210;2022-11-23T12:50:42;4.60;;;3.00;;
6983;SDS011;3532;51.118;7.210;2022-11-23T12:53:31;5.63;;;2.93;;
6983;SDS011;3532;51.118;7.210;2022-11-23T12:58:36;8.07;;;2.90;;
6983;SDS011;3532;51.118;7.210;2022-11-23T13:01:13;7.73;;;3.20;;
6983;SDS011;3532;51.118;7.210;2022-11-23T13:23:03;6.30;;;3.60;;
6983;SDS011;3532;51.118;7.210;2022-11-23T13:25:30;5.47;;;3.40;;
6983;SDS011;3532;51.118;7.210;2022-11-23T13:28:00;7.87;;;3.50;;
6983;SDS011;3532;51.118;7.210;2022-11-23T13:30:29;6.57;;;3.33;;
6983;SDS011;3532;51.118;7.210;2022-11-23T13:40:43;3.90;;;3.10;;
6983;SDS011;3532;51.118;7.210;2022-11-23T13:48:44;5.00;;;3.33;;
6983;SDS011;3532;51.118;7.210;2022-11-23T13:51:10;6.00;;;3.37;;
6983;SDS011;3532;51.118;7.210;2022-11-23T13:53:40;7.67;;;3.23;;
6983;SDS011;3532;51.118;7.210;2022-11-23T13:56:17;5.83;;;3.23;;
6983;SDS011;3532;51.118;7.210;2022-11-23T13:58:49;5.20;;;3.20;;
6983;SDS011;3532;51.118;7.210;2022-11-23T14:01:56;7.10;;;2.70;;
6983;SDS011;3532;51.118;7.210;2022-11-23T14:04:20;6.40;;;3.23;;
6983;SDS011;3532;51.118;7.210;2022-11-23T14:06:47;6.47;;;3.03;;
6983;SDS011;3532;51.118;7.210;2022-11-23T14:14:41;8.60;;;3.30;;
6983;SDS011;3532;51.118;7.210;2022-11-23T14:17:22;5.90;;;3.03;;
6983;SDS011;3532;51.118;7.210;2022-11-23T14:42:02;7.23;;;3.07;;
6983;SDS011;3532;51.118;7.210;2022-11-23T14:44:32;9.17;;;2.93;;
6983;SDS011;3532;51.118;7.210;2022-11-23T14:47:02;7.97;;;2.97;;
6983;SDS011;3532;51.118;7.210;2022-11-23T14:49:28;5.37;;;2.63;;
6983;SDS011;3532;51.118;7.210;2022-11-23T14:51:54;5.63;;;2.50;;
6983;SDS011;3532;51.118;7.210;2022-11-23T14:54:20;7.97;;;2.20;;
6983;SDS011;3532;51.118;7.210;2022-11-23T14:56:46;8.93;;;2.70;;
6983;SDS011;3532;51.118;7.210;2022-11-23T15:01:39;5.63;;;2.70;;
6983;SDS011;3532;51.118;7.210;2022-11-23T15:04:16;5.27;;;2.67;;
6983;SDS011;3532;51.118;7.210;2022-11-23T15:06:46;6.40;;;2.33;;
6983;SDS011;3532;51.118;7.210;2022-11-23T15:12:19;8.07;;;2.80;;
6983;SDS011;3532;51.118;7.210;2022-11-23T15:14:50;6.20;;;2.40;;
6983;SDS011;3532;51.118;7.210;2022-11-23T15:17:17;3.60;;;2.30;;
6983;SDS011;3532;51.118;7.210;2022-11-23T15:19:53;7.83;;;2.33;;
6983;SDS011;3532;51.118;7.210;2022-11-23T15:22:21;3.20;;;2.17;;
6983;SDS011;3532;51.118;7.210;2022-11-23T15:24:48;4.97;;;1.97;;
6983;SDS011;3532;51.118;7.210;2022-11-23T15:27:14;5.30;;;2.33;;
6983;SDS011;3532;51.118;7.210;2022-11-23T15:29:51;3.57;;;2.13;;
6983;SDS011;3532;51.118;7.210;2022-11-23T15:32:22;8.03;;;2.50;;
6983;SDS011;3532;51.118;7.210;2022-11-23T15:34:52;4.37;;;2.40;;
6983;SDS011;3532;51.118;7.210;2022-11-23T15:37:19;4.00;;;2.20;;
6983;SDS011;3532;51.118;7.210;2022-11-23T15:39:45;4.93;;;2.50;;
6983;SDS011;3532;51.118;7.210;2022-11-23T15:42:16;3.30;;;2.40;;
6983;SDS011;3532;51.118;7.210;2022-11-23T15:44:42;3.50;;;2.30;;
6983;SDS011;3532;51.118;7.210;2022-11-23T15:47:10;3.90;;;2.53;;
6983;SDS011;3532;51.118;7.210;2022-11-23T15:49:40;5.53;;;2.50;;
6983;SDS011;3532;51.118;7.210;2022-11-23T15:52:05;5.43;;;2.57;;
6983;SDS011;3532;51.118;7.210;2022-11-23T15:54:33;3.13;;;2.20;;
6983;SDS011;3532;51.118;7.210;2022-11-23T15:56:59;5.20;;;2.50;;
6983;SDS011;3532;51.118;7.210;2022-11-23T16:02:20;5.13;;;2.17;;
6983;SDS011;3532;51.118;7.210;2022-11-23T16:04:46;7.57;;;2.30;;
6983;SDS011;3532;51.118;7.210;2022-11-23T16:07:19;3.73;;;2.40;;
6983;SDS011;3532;51.118;7.210;2022-11-23T16:09:45;5.20;;;2.57;;
6983;SDS011;3532;51.118;7.210;2022-11-23T16:14:52;5.60;;;2.43;;
6983;SDS011;3532;51.118;7.210;2022-11-23T16:17:19;8.50;;;3.13;;
6983;SDS011;3532;51.118;7.210;2022-11-23T16:19:47;5.67;;;2.60;;
6983;SDS011;3532;51.118;7.210;2022-11-23T16:22:21;5.13;;;2.70;;
6983;SDS011;3532;51.118;7.210;2022-11-23T16:24:50;4.10;;;2.37;;
6983;SDS011;3532;51.118;7.210;2022-11-23T16:27:20;7.43;;;2.83;;
6983;SDS011;3532;51.118;7.210;2022-11-23T16:29:48;5.53;;;2.97;;
6983;SDS011;3532;51.118;7.210;2022-11-23T16:34:47;5.53;;;2.67;;
6983;SDS011;3532;51.118;7.210;2022-11-23T16:37:12;5.30;;;2.73;;
6983;SDS011;3532;51.118;7.210;2022-11-23T16:39:37;3.70;;;2.80;;
6983;SDS011;3532;51.118;7.210;2022-11-23T16:42:03;5.43;;;2.63;;
6983;SDS011;3532;51.118;7.210;2022-11-23T16:44:28;4.90;;;2.57;;
6983;SDS011;3532;51.118;7.210;2022-11-23T16:46:53;5.37;;;2.50;;
6983;SDS011;3532;51.118;7.210;2022-11-23T16:49:20;5.43;;;2.87;;
6983;SDS011;3532;51.118;7.210;2022-11-23T16:51:46;6.73;;;2.73;;
6983;SDS011;3532;51.118;7.210;2022-11-23T16:54:16;4.97;;;3.00;;
6983;SDS011;3532;51.118;7.210;2022-11-23T16:56:41;9.40;;;2.50;;
6983;SDS011;3532;51.118;7.210;2022-11-23T16:59:16;5.73;;;2.70;;
6983;SDS011;3532;51.118;7.210;2022-11-23T17:01:43;6.60;;;3.40;;
6983;SDS011;3532;51.118;7.210;2022-11-23T17:04:11;4.13;;;2.50;;
6983;SDS011;3532;51.118;7.210;2022-11-23T17:06:38;5.20;;;2.93;;
6983;SDS011;3532;51.118;7.210;2022-11-23T17:09:05;3.37;;;2.30;;
6983;SDS011;3532;51.118;7.210;2022-11-23T17:11:30;4.00;;;2.83;;
6983;SDS011;3532;51.118;7.210;2022-11-23T17:13:55;3.10;;;2.80;;
6983;SDS011;3532;51.118;7.210;2022-11-23T17:16:21;6.63;;;3.07;;
6983;SDS011;3532;51.118;7.210;2022-11-23T17:18:47;6.23;;;3.13;;
6983;SDS011;3532;51.118;7.210;2022-11-23T17:21:13;6.03;;;3.00;;
6983;SDS011;3532;51.118;7.210;2022-11-23T17:23:38;6.60;;;2.33;;
6983;SDS011;3532;51.118;7.210;2022-11-23T17:26:21;4.53;;;2.57;;
6983;SDS011;3532;51.118;7.210;2022-11-23T17:28:58;6.43;;;2.33;;
6983;SDS011;3532;51.118;7.210;2022-11-23T17:31:25;9.37;;;3.53;;
6983;SDS011;3532;51.118;7.210;2022-11-23T17:33:50;4.27;;;2.50;;